• Join FlightAware (Why Join?)
  • Login
  • US Flag 
03:00AM EDT


 

Airport Tracker/Info


-or-


 

Live Flight TrackerFlight Track Log ✈ SWA407 ✈ 12-Apr-2013 ✈ KTPA - KBUF

Flight Track Log - Related Links

Times and Time Zones

All times are in EDT time to prevent confusion due to time zone crossing. See the SWA407 flight status page for this flight to view local times or setup timezone preferences in your user account.

Time Position Orientation Groundspeed Altitude Reporting Facility
EDT Latitude Longitude Course Direction KTS MPH feet Rate Location/Type
03:54PM 27.9667 -82.5500 192° South 156 180 800  Level Tampa TRACON
03:56PM 27.9000 -82.5667 192° South 204 235 3,400 1,980 Climbing Tampa TRACON
03:58PM 27.9536 -82.6389 310° West 224 258 7,900 2,280 Climbing Jacksonville Center
03:59PM 28.0369 -82.6528 352° North 252 290 10,400 2,100 Climbing Jacksonville Center
04:00PM 28.1289 -82.6783 346° North 299 344 12,100 2,340 Climbing Jacksonville Center
04:01PM 28.2292 -82.6969 351° North 337 388 15,100 2,700 Climbing Jacksonville Center
04:02PM 28.3314 -82.7181 350° North 355 409 17,600 2,400 Climbing Jacksonville Center
04:03PM 28.4336 -82.7414 349° North 368 423 19,900 2,100 Climbing Jacksonville Center
04:04PM 28.5442 -82.7650 349° North 385 443 21,900 1,860 Climbing Jacksonville Center
04:05PM 28.6550 -82.7839 351° North 397 457 23,700 1,560 Climbing Jacksonville Center
04:06PM 28.7697 -82.8050 351° North 402 463 25,100 1,260 Climbing Jacksonville Center
04:07PM 28.8886 -82.8261 351° North 419 482 26,300 1,200 Climbing Jacksonville Center
04:08PM 29.0097 -82.8428 353° North 432 497 27,500 1,200 Climbing Jacksonville Center
04:09PM 29.1392 -82.8308 North 445 512 28,700 1,080 Climbing Jacksonville Center
04:10PM 29.2728 -82.8164 North 462 532 29,700 900 Climbing Jacksonville Center
04:11PM 29.4083 -82.7997 North 475 547 30,600 1,020 Climbing Jacksonville Center
04:12PM 29.5336 -82.7900 North 496 571 31,800 1,020 Climbing Jacksonville Center
04:13PM 29.6756 -82.7756 North 502 578 32,700 900 Climbing Jacksonville Center
04:14PM 29.8175 -82.7608 North 502 578 33,600 1,020 Climbing Jacksonville Center
04:15PM 29.9575 -82.7464 North 502 578 34,800 1,140 Climbing Jacksonville Center
04:16PM 30.1014 -82.7269 North 502 578 35,900 1,020 Climbing Jacksonville Center
04:17PM 30.2392 -82.7147 North 502 578 36,900 540 Climbing Jacksonville Center
04:18PM 30.3811 -82.7000 North 502 578 37,000  Climbing Jacksonville Center
04:19PM 30.5189 -82.7044 358° North 496 571 37,000  Level Jacksonville Center
04:20PM 30.6569 -82.7186 355° North 496 571 37,000  Level Jacksonville Center
04:21PM 30.7967 -82.7258 357° North 496 571 37,000  Level Jacksonville Center
04:22PM 30.9344 -82.7303 358° North 496 571 37,000  Level Jacksonville Center
04:23PM 31.0786 -82.7156 North 501 577 37,000  Level Jacksonville Center
04:24PM 31.2206 -82.6958 North 514 592 37,000  Level Jacksonville Center
04:25PM 31.3689 -82.6761 North 523 602 37,000  Level Jacksonville Center
04:26PM 31.5169 -82.6561 North 523 602 37,000  Level Jacksonville Center
04:27PM 31.7447 -82.6322 North 517 595 37,000  Level Atlanta Center
04:28PM 31.8867 -82.6153 North 517 595 37,000  Level Atlanta Center
04:29PM 32.0325 -82.5983 North 517 595 37,000  Level Atlanta Center
04:30PM 32.1764 -82.5789 North 517 595 37,000  Level Atlanta Center
04:31PM 32.3367 -82.5589 North 522 601 37,000  Level Atlanta Center
04:32PM 32.4783 -82.5417 North 517 595 37,000  Level Atlanta Center
04:33PM 32.6222 -82.5269 North 517 595 37,000  Level Atlanta Center
04:34PM 32.7703 -82.5072 North 522 601 37,000  Level Atlanta Center
04:35PM 32.9142 -82.4897 North 522 601 37,000  Level Atlanta Center
04:36PM 33.0558 -82.4750 North 517 595 37,000  Level Atlanta Center
04:37PM 33.1869 -82.4553 North 517 595 37,000  Level Atlanta Center
04:38PM 33.3414 -82.4375 North 517 595 37,000  Level Atlanta Center
04:39PM 33.4831 -82.4200 North 512 589 37,000  Level Atlanta Center
04:40PM 33.6058 -82.4025 North 506 582 37,000  Level Atlanta Center
04:41PM 33.7475 -82.3850 North 501 577 37,000  Level Atlanta Center
04:42PM 33.8831 -82.3672 North 500 575 37,000  Level Atlanta Center
04:43PM 34.0206 -82.3494 North 500 575 37,000  Level Atlanta Center
04:44PM 34.1769 -82.3314 North 505 581 37,000  Level Atlanta Center
04:45PM 34.3144 -82.3136 North 499 574 37,000  Level Atlanta Center
04:46PM 34.4519 -82.2956 North 499 574 37,000  Level Atlanta Center
04:47PM 34.5872 -82.2778 North 493 567 37,000  Level Atlanta Center
04:48PM 34.7228 -82.2622 North 488 562 37,000  Level Atlanta Center
04:49PM 34.8600 -82.2442 North 488 562 37,000  Level Atlanta Center
04:50PM 34.9956 -82.2283 North 493 567 37,000  Level Atlanta Center
04:51PM 35.1308 -82.2128 North 487 560 37,000  Level Atlanta Center
04:52PM 35.2683 -82.1919 North 487 560 37,000  Level Atlanta Center
04:53PM 35.4017 -82.1761 North 476 548 37,000  Level Atlanta Center
04:54PM 35.5350 -82.1606 North 482 555 37,000  Level Atlanta Center
04:55PM 35.6722 -82.1419 North 489 563 37,000  Level Atlanta Center
04:56PM 35.7950 -82.1236 North 484 557 37,000  Level Atlanta Center
04:57PM 35.9283 -82.1078 North 485 558 37,000  Level Atlanta Center
04:58PM 36.0678 -82.0864 North 485 558 37,000  Level Atlanta Center
04:59PM 36.1928 -82.0731 North 471 542 37,000  Level Atlanta Center
05:00PM 36.3425 -82.0464 North 476 548 37,000  Level Atlanta Center
05:01PM 36.4778 -82.0300 North 476 548 37,000  Level Atlanta Center
05:03PM 36.6894 -82.0006 North 478 550 37,000  Level Indianapolis Center
05:04PM 36.8269 -81.9819 North 493 567 37,000  Level Indianapolis Center
05:05PM 36.9597 -81.9639 North 483 556 37,000  Level Indianapolis Center
05:06PM 37.0944 -81.9333 10° North 499 574 37,000  Level Indianapolis Center
05:07PM 37.2475 -81.8633 20° North 505 581 37,000  Level Indianapolis Center
05:08PM 37.3806 -81.8033 20° North 505 581 37,000  Level Indianapolis Center
05:09PM 37.5142 -81.7428 20° North 508 585 37,000  Level Indianapolis Center
05:10PM 37.6461 -81.6789 21° North 507 583 37,000  Level Indianapolis Center
05:11PM 37.7825 -81.6183 19° North 515 593 37,000  Level Indianapolis Center
05:12PM 37.9219 -81.5542 20° North 516 594 37,000  Level Indianapolis Center
05:13PM 38.0581 -81.5158 13° North 500 575 37,000  Level Indianapolis Center
05:14PM 38.1964 -81.4922 North 500 575 37,000  Level Indianapolis Center
05:15PM 38.3603 -81.4653 North 497 572 37,000  Level Indianapolis Center
05:16PM 38.4964 -81.4417 North 496 571 37,000  Level Indianapolis Center
05:17PM 38.6358 -81.4158 North 500 575 37,000  Level Indianapolis Center
05:18PM 38.7644 -81.3622 18° North 514 592 37,000  Level Indianapolis Center
05:19PM 38.9264 -81.2719 23° Northeast 530 610 37,000  Level Indianapolis Center
05:20PM 39.0617 -81.1997 23° Northeast 529 609 37,000  Level Indianapolis Center
05:21PM 39.1994 -81.1250 23° Northeast 535 616 37,000  Level Indianapolis Center
05:22PM 39.3356 -81.0519 23° Northeast 531 611 37,000  Level Indianapolis Center
05:23PM 39.4706 -80.9803 22° Northeast 524 603 37,000  Level Indianapolis Center
05:24PM 39.6058 -80.9081 22° Northeast 525 604 37,000  Level Indianapolis Center
05:25PM 39.7583 -80.8261 22° Northeast 517 595 37,000  Level Cleveland Center
05:26PM 39.8919 -80.7536 23° Northeast 517 595 37,000 -360 Level Cleveland Center
05:27PM 40.0233 -80.6833 22° Northeast 517 595 36,300 -840 Descending Cleveland Center
05:28PM 40.1589 -80.6075 23° Northeast 517 595 35,400 -960 Descending Cleveland Center
05:29PM 40.2922 -80.5342 23° Northeast 517 595 34,400 -900 Descending Cleveland Center
05:30PM 40.4131 -80.4686 22° Northeast 517 595 33,600 -900 Descending Cleveland Center
05:31PM 40.5444 -80.3919 24° Northeast 517 595 32,600 -840 Descending Cleveland Center
05:32PM 40.6756 -80.3231 22° Northeast 512 589 32,000 -300 Descending Cleveland Center
05:33PM 40.8047 -80.2483 24° Northeast 507 583 32,000  Level Cleveland Center
05:34PM 40.9378 -80.1736 23° Northeast 507 583 32,000 -540 Level Cleveland Center
05:35PM 41.0689 -80.0983 23° Northeast 507 583 31,000 -1,080 Descending Cleveland Center
05:36PM 41.1958 -80.0283 23° Northeast 507 583 29,900 -1,080 Descending Cleveland Center
05:37PM 41.3203 -79.9556 24° Northeast 495 570 28,900 -1,020 Descending Cleveland Center
05:38PM 41.4431 -79.8850 23° Northeast 484 557 27,900 -960 Descending Cleveland Center
05:39PM 41.5614 -79.8172 23° Northeast 474 545 27,000 -480 Descending Cleveland Center
05:40PM 41.6839 -79.7492 23° Northeast 468 539 27,000 -1,140 Level Cleveland Center
05:41PM 41.8022 -79.6806 23° Northeast 461 531 24,800 -2,160 Descending Cleveland Center
05:42PM 41.9225 -79.6064 25° Northeast 466 536 22,700 -2,460 Descending Cleveland Center
05:43PM 42.0408 -79.5431 22° Northeast 461 531 19,900 -2,760 Descending Cleveland Center
05:44PM 42.1525 -79.4714 25° Northeast 451 519 17,200 -2,460 Descending Cleveland Center
05:45PM 42.2606 -79.4106 23° Northeast 440 506 15,000 -2,100 Descending Cleveland Center
05:46PM 42.3661 -79.3522 22° Northeast 419 482 13,100 -1,920 Descending Cleveland Center
05:47PM 42.4758 -79.2883 23° Northeast 398 458 11,200 -1,320 Descending Cleveland Center
05:48PM 42.5464 -79.2472 23° Northeast 373 429 10,500 -1,020 Descending Cleveland Center
05:49PM 42.6478 -79.1889 23° Northeast 334 384 9,200 -1,260 Descending Cleveland Center
05:50PM 42.7283 -79.1444 22° Northeast 313 360 8,000 -600 Descending Cleveland Center
05:51PM 42.8031 -79.1006 23° Northeast 313 360 8,000  Level Cleveland Center
05:52PM 42.8728 -79.0278 37° Northeast 319 367 8,000 -420 Level Cleveland Center
05:53PM 42.9444 -78.9297 45° Northeast 319 367 7,200 -960 Descending Cleveland Center
05:54PM 43.0014 -78.8403 49° Northeast 319 367 6,100 -1,200 Descending Cleveland Center
05:55PM 43.0500 -78.7500 54° Northeast 310 357 4,900 -1,140 Descending Buffalo TRACON
05:56PM 43.1000 -78.6667 51° Northeast 303 349 4,100 -780 Descending Buffalo TRACON
05:57PM 43.1000 -78.5833 90° East 242 278 3,500 -900 Descending Buffalo TRACON
05:58PM 43.0500 -78.5833 180° South 139 160 2,300 -1,200 Descending Buffalo TRACON